createdAt,value
2018-10-18T00:02:19.688Z,18.05
2018-10-18T00:04:50.005Z,18.02
2018-10-18T00:07:19.390Z,17.75
2018-10-18T00:09:48.833Z,17.52
2018-10-18T00:12:18.157Z,18.25
2018-10-18T00:14:48.141Z,17.07
2018-10-18T00:17:22.787Z,17.55
2018-10-18T00:19:52.206Z,17.25
2018-10-18T00:22:21.685Z,17.77
2018-10-18T00:24:51.307Z,17.10
2018-10-18T00:27:20.665Z,18.52
2018-10-18T00:29:50.113Z,17.52
2018-10-18T00:32:19.713Z,17.57
2018-10-18T00:34:49.283Z,17.48
2018-10-18T00:37:18.699Z,18.10
2018-10-18T00:39:48.062Z,17.57
2018-10-18T00:42:17.552Z,18.30
2018-10-18T00:44:46.804Z,17.70
2018-10-18T00:47:16.200Z,17.30
2018-10-18T00:49:45.865Z,17.20
2018-10-18T00:52:15.290Z,17.62
2018-10-18T00:54:44.759Z,17.92
2018-10-18T00:57:14.380Z,17.82
2018-10-18T00:59:43.835Z,17.60
2018-10-18T01:02:13.389Z,16.73
2018-10-18T01:04:42.697Z,16.23
2018-10-18T01:07:12.033Z,17.65
2018-10-18T01:09:41.460Z,18.25
2018-10-18T01:12:11.134Z,18.17
2018-10-18T01:14:40.365Z,17.82
2018-10-18T01:17:09.694Z,18.60
2018-10-18T01:19:39.277Z,16.82
2018-10-18T01:22:08.758Z,17.92
2018-10-18T01:24:38.202Z,18.65
2018-10-18T01:27:07.868Z,17.27
2018-10-18T01:29:37.189Z,16.57
2018-10-18T01:32:07.519Z,17.23
2018-10-18T01:34:37.533Z,16.85
2018-10-18T01:37:07.061Z,18.57
2018-10-18T01:39:36.514Z,17.48
2018-10-18T01:42:07.108Z,17.23
2018-10-18T01:44:36.397Z,16.75
2018-10-18T01:47:06.051Z,17.87
2018-10-18T01:49:36.243Z,17.07
2018-10-18T01:52:05.945Z,17.02
2018-10-18T01:54:35.381Z,17.32
2018-10-18T01:57:05.149Z,16.73
2018-10-18T01:59:34.673Z,17.32
2018-10-18T02:02:04.145Z,17.57
2018-10-18T02:04:33.460Z,17.55
2018-10-18T02:07:02.899Z,17.45
2018-10-18T02:09:32.265Z,17.30
2018-10-18T02:12:01.660Z,17.80
2018-10-18T02:14:31.120Z,17.25
2018-10-18T02:17:00.536Z,17.55
2018-10-18T02:19:30.528Z,17.82
2018-10-18T02:21:59.854Z,17.55
2018-10-18T02:24:30.344Z,17.65
2018-10-18T02:26:59.801Z,17.32
2018-10-18T02:29:29.212Z,16.57
2018-10-18T02:31:58.589Z,17.42
2018-10-18T02:34:27.964Z,17.92
2018-10-18T02:36:57.400Z,17.48
2018-10-18T02:39:26.881Z,18.07
2018-10-18T02:41:56.384Z,17.52
2018-10-18T02:44:25.986Z,17.37
2018-10-18T02:46:55.405Z,18.32
2018-10-18T02:49:24.802Z,17.52
2018-10-18T02:51:54.148Z,17.40
2018-10-18T02:54:23.581Z,16.90
2018-10-18T02:56:52.926Z,18.55
2018-10-18T02:59:22.360Z,18.23
2018-10-18T03:01:51.813Z,18.52
2018-10-18T03:04:21.298Z,18.50
2018-10-18T03:06:50.729Z,18.92
2018-10-18T03:09:20.071Z,19.80
2018-10-18T03:11:49.510Z,19.12
2018-10-18T03:14:18.992Z,18.35
2018-10-18T03:16:48.891Z,18.95
2018-10-18T03:19:18.338Z,19.35
2018-10-18T03:21:47.760Z,18.23
2018-10-18T03:24:17.166Z,18.42
2018-10-18T03:26:46.528Z,18.48
2018-10-18T03:29:16.614Z,18.48
2018-10-18T03:31:45.953Z,19.60
2018-10-18T03:34:15.443Z,19.00
2018-10-18T03:36:44.775Z,17.80
2018-10-18T03:39:14.127Z,19.10
2018-10-18T03:41:43.564Z,19.20
2018-10-18T03:44:13.954Z,20.12
2018-10-18T03:46:43.443Z,19.40
2018-10-18T03:49:12.857Z,18.82
2018-10-18T03:51:42.183Z,20.17
2018-10-18T03:54:11.805Z,18.75
2018-10-18T03:56:41.060Z,18.12
2018-10-18T03:59:10.487Z,20.05
2018-10-18T04:01:39.968Z,18.75
2018-10-18T04:04:09.339Z,19.17
2018-10-18T04:06:38.931Z,18.95
2018-10-18T04:09:10.105Z,18.70
2018-10-18T04:11:40.600Z,18.02
2018-10-18T04:14:10.125Z,19.77
2018-10-18T04:16:40.318Z,19.25
2018-10-18T04:19:09.760Z,19.02
2018-10-18T04:21:39.253Z,19.17
2018-10-18T04:24:09.274Z,19.65
2018-10-18T04:26:38.784Z,20.02
2018-10-18T04:29:08.146Z,18.98
2018-10-18T04:31:37.465Z,19.70
2018-10-18T04:34:07.002Z,19.98
2018-10-18T04:36:36.504Z,20.37
2018-10-18T04:39:10.195Z,19.95
2018-10-18T04:41:39.606Z,20.45
2018-10-18T04:44:09.030Z,20.72
2018-10-18T04:46:38.655Z,19.75
2018-10-18T04:49:08.166Z,19.27
2018-10-18T04:51:37.514Z,20.15
2018-10-18T04:54:06.947Z,20.70
2018-10-18T04:56:36.899Z,21.40
2018-10-18T04:59:06.461Z,20.20
2018-10-18T05:01:36.876Z,19.95
2018-10-18T05:04:06.669Z,19.55
2018-10-18T05:06:36.588Z,19.90
2018-10-18T05:09:08.071Z,20.72
2018-10-18T05:11:37.579Z,19.75
2018-10-18T05:14:07.057Z,19.80
2018-10-18T05:16:36.409Z,18.77
2018-10-18T05:19:06.254Z,20.35
2018-10-18T05:21:35.662Z,19.60
2018-10-18T05:24:05.731Z,20.30
2018-10-18T05:26:35.180Z,19.50
2018-10-18T05:29:04.669Z,20.08
2018-10-18T05:31:34.148Z,18.50
2018-10-18T05:34:03.503Z,19.37
2018-10-18T05:36:33.122Z,20.25
2018-10-18T05:39:05.174Z,20.77
2018-10-18T05:41:34.597Z,20.40
2018-10-18T05:44:05.701Z,20.68
2018-10-18T05:46:35.190Z,18.70
2018-10-18T05:49:04.610Z,21.23
2018-10-18T05:51:34.012Z,19.65
2018-10-18T05:54:03.706Z,20.05
2018-10-18T05:56:33.061Z,19.48
2018-10-18T05:59:02.512Z,20.00
2018-10-18T06:01:31.978Z,20.05
2018-10-18T06:04:01.403Z,20.77
2018-10-18T06:06:30.813Z,19.95
2018-10-18T06:09:00.168Z,20.57
2018-10-18T06:11:31.289Z,20.32
2018-10-18T06:14:00.764Z,19.65
2018-10-18T06:16:30.173Z,20.55
2018-10-18T06:18:59.550Z,21.33
2018-10-18T06:21:29.001Z,19.77
2018-10-18T06:23:58.354Z,19.95
2018-10-18T06:26:27.793Z,20.80
2018-10-18T06:28:57.893Z,20.35
2018-10-18T06:31:27.413Z,20.90
2018-10-18T06:33:56.943Z,20.25
2018-10-18T06:36:26.349Z,21.80
2018-10-18T06:38:55.854Z,20.43
2018-10-18T06:41:25.260Z,21.48
2018-10-18T06:43:54.725Z,22.02
2018-10-18T06:46:24.133Z,21.60
2018-10-18T06:48:53.555Z,22.05
2018-10-18T06:51:22.881Z,20.92
2018-10-18T06:53:52.494Z,21.68
2018-10-18T06:56:22.035Z,22.82
2018-10-18T06:58:51.523Z,21.77
2018-10-18T07:01:20.920Z,21.75
2018-10-18T07:03:50.342Z,22.13
2018-10-18T07:06:19.779Z,22.62
2018-10-18T07:08:49.188Z,21.87
2018-10-18T07:11:18.576Z,22.17
2018-10-18T07:13:48.423Z,21.90
2018-10-18T07:16:17.778Z,21.62
2018-10-18T07:18:47.205Z,22.65
2018-10-18T07:21:16.747Z,22.25
2018-10-18T07:23:46.212Z,22.48
2018-10-18T07:26:15.712Z,21.48
2018-10-18T07:28:45.093Z,22.67
2018-10-18T07:31:14.454Z,23.15
2018-10-18T07:33:43.858Z,23.32
2018-10-18T07:36:13.385Z,23.18
2018-10-18T07:38:42.853Z,25.57
2018-10-18T07:41:12.408Z,23.18
2018-10-18T07:43:41.861Z,23.52
2018-10-18T07:46:11.399Z,23.95
2018-10-18T07:48:40.895Z,23.45
2018-10-18T07:51:10.282Z,23.45
2018-10-18T07:53:39.763Z,23.25
2018-10-18T07:56:09.131Z,24.75
2018-10-18T07:58:39.121Z,23.02
2018-10-18T08:01:08.667Z,23.85
2018-10-18T08:03:38.109Z,24.77
2018-10-18T08:06:07.566Z,25.17
2018-10-18T08:08:37.075Z,24.60
2018-10-18T08:11:06.959Z,24.40
2018-10-18T08:13:36.885Z,24.85
2018-10-18T08:16:06.714Z,23.65
2018-10-18T08:18:36.272Z,26.20
2018-10-18T08:21:06.368Z,26.70
2018-10-18T08:23:35.738Z,27.87
2018-10-18T08:26:05.360Z,28.57
2018-10-18T08:28:34.803Z,29.52
2018-10-18T08:31:04.343Z,29.95
2018-10-18T08:33:33.717Z,29.57
2018-10-18T08:36:03.233Z,29.98
2018-10-18T08:38:32.709Z,30.25
2018-10-18T08:41:02.170Z,31.65
2018-10-18T08:43:31.575Z,33.02
2018-10-18T08:46:01.027Z,31.75
2018-10-18T08:48:30.570Z,33.78
2018-10-18T08:50:59.932Z,33.98
2018-10-18T08:53:29.418Z,34.67
2018-10-18T08:55:58.973Z,32.83
2018-10-18T08:58:28.460Z,35.00
2018-10-18T09:00:57.907Z,34.20
2018-10-18T09:03:27.397Z,35.08
2018-10-18T09:05:56.912Z,33.78
2018-10-18T09:08:27.188Z,34.50
2018-10-18T09:10:56.649Z,38.35
2018-10-18T09:13:26.233Z,34.95
2018-10-18T09:15:55.726Z,33.83
2018-10-18T09:18:25.245Z,35.00
2018-10-18T09:20:54.612Z,36.75
2018-10-18T09:23:24.286Z,35.05
2018-10-18T09:25:53.896Z,37.70
2018-10-18T09:28:23.393Z,35.80
2018-10-18T09:30:52.811Z,36.10
2018-10-18T09:33:22.303Z,36.33
2018-10-18T09:35:51.807Z,37.48
2018-10-18T09:38:21.317Z,38.15
2018-10-18T09:40:57.035Z,36.42
2018-10-18T09:43:26.498Z,38.10
2018-10-18T09:45:56.014Z,36.30
2018-10-18T09:48:25.639Z,38.00
2018-10-18T09:50:55.121Z,38.08
2018-10-18T09:53:24.621Z,38.53
2018-10-18T09:55:54.029Z,37.40
2018-10-18T09:58:23.541Z,38.98
2018-10-18T10:00:58.332Z,39.13
2018-10-18T10:03:27.774Z,39.27
2018-10-18T10:05:57.292Z,40.00
2018-10-18T10:08:26.686Z,40.33
2018-10-18T10:10:56.223Z,40.70
2018-10-18T10:13:25.825Z,39.08
2018-10-18T10:15:55.109Z,40.43
2018-10-18T10:18:24.613Z,38.83
2018-10-18T10:20:54.282Z,41.10
2018-10-18T10:23:23.753Z,40.12
2018-10-18T10:25:53.156Z,38.13
2018-10-18T10:28:22.637Z,38.55
2018-10-18T10:30:52.099Z,39.40
2018-10-18T10:33:21.605Z,40.38
2018-10-18T10:35:51.230Z,39.23
2018-10-18T10:38:20.785Z,41.28
2018-10-18T10:40:50.320Z,39.45
2018-10-18T10:43:19.761Z,38.55
2018-10-18T10:45:49.341Z,39.67
2018-10-18T10:48:18.875Z,38.80
2018-10-18T10:50:48.281Z,37.30
2018-10-18T10:53:17.733Z,38.83
2018-10-18T10:55:47.162Z,37.28
2018-10-18T10:58:16.757Z,36.65
2018-10-18T11:01:22.631Z,36.45
2018-10-18T11:03:53.595Z,36.98
2018-10-18T11:06:23.627Z,36.00
2018-10-18T11:08:53.295Z,38.42
2018-10-18T11:11:24.208Z,38.15
2018-10-18T11:13:53.750Z,37.25
2018-10-18T11:16:23.347Z,37.85
2018-10-18T11:18:52.766Z,38.25
2018-10-18T11:21:22.231Z,38.10
2018-10-18T11:23:51.664Z,39.35
2018-10-18T11:26:21.336Z,37.40
2018-10-18T11:28:50.676Z,37.13
2018-10-18T11:31:20.597Z,36.10
2018-10-18T11:33:50.001Z,36.25
2018-10-18T11:36:19.446Z,35.17
2018-10-18T11:38:49.385Z,37.45
2018-10-18T11:41:18.813Z,34.00
2018-10-18T11:43:48.279Z,37.13
2018-10-18T11:46:17.639Z,36.30
2018-10-18T11:48:47.050Z,36.00
2018-10-18T11:51:16.482Z,35.52
2018-10-18T11:53:45.889Z,36.77
2018-10-18T11:56:15.378Z,35.17
2018-10-18T11:58:44.785Z,34.13
2018-10-18T12:01:14.339Z,35.95
2018-10-18T12:03:43.820Z,37.80
2018-10-18T12:06:13.262Z,36.85
2018-10-18T12:08:42.724Z,36.17
2018-10-18T12:11:12.397Z,36.25
2018-10-18T12:13:41.697Z,36.60
2018-10-18T12:16:11.160Z,36.28
2018-10-18T12:18:40.557Z,36.70
2018-10-18T12:21:09.886Z,35.25
2018-10-18T12:23:39.376Z,34.70
2018-10-18T12:26:08.892Z,36.70
2018-10-18T12:28:38.286Z,39.33
2018-10-18T12:31:07.786Z,37.40
2018-10-18T12:33:40.098Z,37.33
2018-10-18T12:36:09.465Z,38.17
2018-10-18T12:38:38.880Z,37.65
2018-10-18T12:41:08.392Z,37.78
2018-10-18T12:43:37.799Z,38.17
2018-10-18T12:46:07.318Z,38.53
2018-10-18T12:48:36.758Z,39.10
2018-10-18T12:51:06.217Z,38.02
2018-10-18T12:53:35.859Z,39.40
2018-10-18T12:56:05.999Z,37.67
2018-10-18T12:58:35.345Z,42.03
2018-10-18T13:01:04.970Z,42.53
2018-10-18T13:03:34.473Z,40.25
2018-10-18T13:06:03.878Z,42.55
2018-10-18T13:08:33.304Z,43.87
2018-10-18T13:11:02.719Z,45.70
2018-10-18T13:13:32.513Z,44.93
2018-10-18T13:16:01.871Z,42.40
2018-10-18T13:18:31.573Z,41.05
2018-10-18T13:21:00.967Z,42.23
2018-10-18T13:23:30.320Z,45.38
2018-10-18T13:26:00.403Z,41.73
2018-10-18T13:28:29.940Z,41.58
2018-10-18T13:30:59.339Z,41.35
2018-10-18T13:33:28.788Z,41.88
2018-10-18T13:35:58.328Z,41.65
2018-10-18T13:38:27.808Z,42.33
2018-10-18T13:40:57.310Z,40.63
2018-10-18T13:43:26.722Z,41.25
2018-10-18T13:45:56.233Z,41.85
2018-10-18T13:48:25.612Z,41.18
2018-10-18T13:50:54.995Z,41.65
2018-10-18T13:53:24.537Z,41.85
2018-10-18T13:55:53.917Z,39.45
2018-10-18T13:58:23.383Z,42.50
2018-10-18T14:00:52.726Z,38.33
2018-10-18T14:03:22.179Z,40.28
2018-10-18T14:05:52.409Z,39.23
2018-10-18T14:08:21.862Z,40.25
2018-10-18T14:10:51.213Z,39.13
2018-10-18T14:13:20.564Z,40.52
2018-10-18T14:15:49.947Z,40.17
2018-10-18T14:18:19.481Z,37.93
2018-10-18T14:20:48.945Z,40.03
2018-10-18T14:23:18.440Z,40.10
2018-10-18T14:25:47.753Z,38.30
2018-10-18T14:28:17.302Z,40.85
2018-10-18T14:30:46.762Z,38.48
2018-10-18T14:33:16.097Z,38.25
2018-10-18T14:35:45.485Z,38.80
2018-10-18T14:38:15.033Z,37.28
2018-10-18T14:40:44.409Z,39.03
2018-10-18T14:43:13.840Z,37.85
2018-10-18T14:45:43.293Z,36.95
2018-10-18T14:48:12.745Z,35.30
2018-10-18T14:50:42.295Z,35.50
2018-10-18T14:53:11.849Z,35.78
2018-10-18T14:55:41.150Z,35.03
2018-10-18T14:58:10.520Z,35.28
2018-10-18T15:00:40.246Z,34.53
2018-10-18T15:03:09.677Z,35.13
2018-10-18T15:05:39.097Z,34.58
2018-10-18T15:08:08.570Z,34.08
2018-10-18T15:10:37.975Z,33.05
2018-10-18T15:13:07.577Z,32.93
2018-10-18T15:15:37.130Z,31.30
2018-10-18T15:18:06.654Z,30.20
2018-10-18T15:20:36.131Z,30.80
2018-10-18T15:23:05.582Z,28.85
2018-10-18T15:25:36.261Z,30.95
2018-10-18T15:28:05.861Z,28.87
2018-10-18T15:30:35.414Z,29.12
2018-10-18T15:33:04.919Z,27.80
2018-10-18T15:35:34.436Z,28.90
2018-10-18T15:38:04.022Z,29.48
2018-10-18T15:40:33.441Z,29.27
2018-10-18T15:43:03.306Z,28.50
2018-10-18T15:45:32.788Z,28.07
2018-10-18T15:48:02.292Z,26.93
2018-10-18T15:50:31.740Z,28.15
2018-10-18T15:53:01.234Z,26.73
2018-10-18T15:55:30.652Z,26.05
2018-10-18T15:58:00.118Z,26.62
2018-10-18T16:00:29.483Z,25.15
2018-10-18T16:02:58.939Z,25.85
2018-10-18T16:05:28.440Z,24.35
2018-10-18T16:07:57.990Z,23.62
2018-10-18T16:10:28.175Z,25.52
2018-10-18T16:12:57.580Z,25.57
2018-10-18T16:15:27.062Z,25.32
2018-10-18T16:17:56.503Z,25.95
2018-10-18T16:20:26.112Z,25.95
2018-10-18T16:22:55.534Z,25.10
2018-10-18T16:25:24.908Z,24.30
2018-10-18T16:27:54.524Z,24.25
2018-10-18T16:30:23.925Z,24.37
2018-10-18T16:32:53.358Z,23.77
2018-10-18T16:35:23.383Z,24.02
2018-10-18T16:37:53.544Z,23.80
2018-10-18T16:40:23.218Z,23.20
2018-10-18T16:42:53.432Z,23.32
2018-10-18T16:45:22.820Z,22.70
2018-10-18T16:47:52.721Z,23.75
2018-10-18T16:50:22.157Z,24.25
2018-10-18T16:52:51.577Z,23.10
2018-10-18T16:55:21.081Z,22.35
2018-10-18T16:57:50.528Z,24.05
2018-10-18T17:00:20.270Z,20.72
2018-10-18T17:02:49.689Z,22.15
2018-10-18T17:05:19.090Z,22.37
2018-10-18T17:07:48.521Z,22.67
2018-10-18T17:10:18.044Z,21.82
2018-10-18T17:12:47.422Z,23.22
2018-10-18T17:15:16.796Z,21.85
2018-10-18T17:17:46.579Z,22.32
2018-10-18T17:20:16.194Z,21.48
2018-10-18T17:22:45.580Z,21.90
2018-10-18T17:25:16.104Z,23.25
2018-10-18T17:27:45.702Z,23.55
2018-10-18T17:30:15.411Z,20.40
2018-10-18T17:32:44.781Z,19.82
2018-10-18T17:35:14.165Z,19.87
2018-10-18T17:37:43.579Z,18.32
2018-10-18T17:40:13.793Z,20.30
2018-10-18T17:42:44.116Z,20.23
2018-10-18T17:45:13.836Z,19.35
2018-10-18T17:47:43.275Z,20.30
2018-10-18T17:50:12.830Z,19.77
2018-10-18T17:52:42.320Z,20.05
2018-10-18T17:55:11.743Z,19.65
2018-10-18T17:57:41.238Z,20.10
2018-10-18T18:00:12.746Z,18.82
2018-10-18T18:02:42.342Z,19.90
2018-10-18T18:05:12.793Z,18.90
2018-10-18T18:07:42.375Z,19.45
2018-10-18T18:10:15.200Z,19.73
2018-10-18T18:12:44.880Z,19.85
2018-10-18T18:15:14.341Z,22.00
2018-10-18T18:17:43.773Z,22.98
2018-10-18T18:20:13.404Z,22.60
2018-10-18T18:22:42.798Z,21.55
2018-10-18T18:25:12.887Z,21.20
2018-10-18T18:27:43.481Z,24.20
2018-10-18T18:30:14.308Z,22.55
2018-10-18T18:32:44.231Z,23.45
2018-10-18T18:35:13.931Z,24.87
2018-10-18T18:37:43.468Z,24.02
2018-10-18T18:40:13.040Z,22.07
2018-10-18T18:42:42.842Z,23.60
2018-10-18T18:45:18.368Z,23.30
2018-10-18T18:47:48.472Z,23.27
2018-10-18T18:50:17.934Z,24.47
2018-10-18T18:52:47.439Z,22.85
2018-10-18T18:55:16.939Z,21.73
2018-10-18T18:57:46.507Z,23.95
2018-10-18T19:00:16.065Z,25.65
2018-10-18T19:02:45.523Z,26.07
2018-10-18T19:05:14.996Z,22.87
2018-10-18T19:07:44.461Z,25.82
2018-10-18T19:10:13.844Z,25.75
2018-10-18T19:12:43.289Z,27.05
2018-10-18T19:15:13.417Z,24.95
2018-10-18T19:17:42.963Z,25.30
2018-10-18T19:20:12.438Z,24.80
2018-10-18T19:22:42.648Z,23.65
2018-10-18T19:25:12.085Z,25.05
2018-10-18T19:27:41.699Z,26.75
2018-10-18T19:30:12.010Z,24.77
2018-10-18T19:32:41.663Z,26.62
2018-10-18T19:35:11.137Z,24.18
2018-10-18T19:37:40.641Z,26.33
2018-10-18T19:40:10.562Z,24.63
2018-10-18T19:42:39.957Z,24.43
2018-10-18T19:45:10.365Z,24.65
2018-10-18T19:47:40.274Z,24.95
2018-10-18T19:50:10.087Z,24.25
2018-10-18T19:52:39.745Z,25.05
2018-10-18T19:55:09.898Z,24.37
2018-10-18T19:57:39.402Z,23.50
2018-10-18T20:00:09.826Z,23.02
2018-10-18T20:02:39.321Z,23.07
2018-10-18T20:05:10.002Z,23.80
2018-10-18T20:07:39.499Z,21.90
2018-10-18T20:10:09.378Z,22.82
2018-10-18T20:12:38.942Z,22.30
2018-10-18T20:15:08.819Z,23.92
2018-10-18T20:17:38.111Z,24.77
2018-10-18T20:20:09.736Z,23.67
2018-10-18T20:22:39.392Z,21.35
2018-10-18T20:25:09.642Z,21.77
2018-10-18T20:27:39.090Z,22.67
2018-10-18T20:30:13.026Z,21.02
2018-10-18T20:32:42.955Z,21.55
2018-10-18T20:35:12.437Z,20.55
2018-10-18T20:37:42.082Z,21.35
2018-10-18T20:40:13.864Z,21.82
2018-10-18T20:42:43.656Z,21.50
2018-10-18T20:45:18.314Z,21.37
2018-10-18T20:47:47.997Z,22.27
2018-10-18T20:50:17.354Z,22.35
2018-10-18T20:52:46.797Z,19.67
2018-10-18T20:55:17.132Z,18.07
2018-10-18T20:57:46.544Z,17.17
2018-10-18T21:00:15.990Z,19.65
2018-10-18T21:02:45.437Z,18.25
2018-10-18T21:05:14.859Z,20.72
2018-10-18T21:07:44.438Z,18.30
2018-10-18T21:10:13.959Z,20.60
2018-10-18T21:12:43.420Z,21.62
2018-10-18T21:15:13.446Z,19.80
2018-10-18T21:17:42.761Z,19.17
2018-10-18T21:20:12.238Z,21.62
2018-10-18T21:22:42.371Z,20.88
2018-10-18T21:25:11.800Z,22.17
2018-10-18T21:27:41.271Z,21.82
2018-10-18T21:30:10.866Z,19.42
2018-10-18T21:32:40.346Z,18.92
2018-10-18T21:35:09.847Z,19.82
2018-10-18T21:37:39.120Z,22.00
2018-10-18T21:40:08.552Z,21.10
2018-10-18T21:42:38.000Z,21.20
2018-10-18T21:45:07.574Z,21.17
2018-10-18T21:47:37.016Z,18.98
2018-10-18T21:50:06.924Z,20.10
2018-10-18T21:52:36.310Z,19.12
2018-10-18T21:55:06.381Z,18.30
2018-10-18T21:57:35.750Z,20.20
2018-10-18T22:00:07.010Z,18.98
2018-10-18T22:02:36.390Z,20.43
2018-10-18T22:05:06.180Z,19.23
2018-10-18T22:07:35.474Z,20.90
2018-10-18T22:10:05.370Z,20.57
2018-10-18T22:12:34.868Z,17.60
2018-10-18T22:15:05.001Z,19.02
2018-10-18T22:17:34.269Z,16.87
2018-10-18T22:20:03.942Z,18.00
2018-10-18T22:22:33.500Z,17.42
2018-10-18T22:25:03.130Z,16.17
2018-10-18T22:27:32.557Z,15.60
2018-10-18T22:30:02.187Z,16.50
2018-10-18T22:32:31.547Z,14.68
2018-10-18T22:35:00.994Z,16.85
2018-10-18T22:37:30.470Z,15.00
2018-10-18T22:39:59.965Z,17.90
2018-10-18T22:42:29.396Z,16.67
2018-10-18T22:44:58.741Z,16.80
2018-10-18T22:47:28.068Z,17.30
2018-10-18T22:49:57.594Z,16.23
2018-10-18T22:52:27.011Z,15.95
2018-10-18T22:54:56.343Z,14.40
2018-10-18T22:57:25.741Z,14.13
2018-10-18T22:59:55.141Z,13.88
2018-10-18T23:02:24.552Z,12.68
2018-10-18T23:04:54.014Z,11.55
2018-10-18T23:07:23.316Z,9.93
2018-10-18T23:09:52.851Z,10.60
2018-10-18T23:12:22.444Z,9.95
2018-10-18T23:14:51.887Z,9.60
2018-10-18T23:17:21.216Z,8.20
2018-10-18T23:19:50.659Z,7.33
2018-10-18T23:22:20.156Z,5.58
2018-10-18T23:24:49.549Z,5.35
2018-10-18T23:27:18.008Z,4.47
2018-10-18T23:29:47.321Z,5.30
2018-10-18T23:32:16.778Z,5.25
2018-10-18T23:34:46.184Z,3.35
2018-10-18T23:37:15.499Z,3.02
2018-10-18T23:39:44.895Z,2.62
2018-10-18T23:42:14.326Z,2.35
2018-10-18T23:44:43.704Z,2.45
2018-10-18T23:47:13.179Z,2.85
2018-10-18T23:49:42.541Z,3.10
2018-10-18T23:52:12.489Z,3.52
2018-10-18T23:54:42.049Z,3.87
2018-10-18T23:57:11.549Z,4.00
2018-10-18T23:59:40.861Z,3.90
